sensor_id;sensor_type;location;lat;lon;timestamp;P1;durP1;ratioP1;P2;durP2;ratioP2
26474;SDS011;14161;52.270;10.334;2022-10-20T00:01:18;2.00;;;1.15;;
26474;SDS011;14161;52.270;10.334;2022-10-20T00:03:47;2.15;;;1.30;;
26474;SDS011;14161;52.270;10.334;2022-10-20T00:06:14;2.25;;;1.23;;
26474;SDS011;14161;52.270;10.334;2022-10-20T00:08:48;1.85;;;1.40;;
26474;SDS011;14161;52.270;10.334;2022-10-20T00:11:14;1.23;;;0.93;;
26474;SDS011;14161;52.270;10.334;2022-10-20T00:13:42;1.83;;;1.30;;
26474;SDS011;14161;52.270;10.334;2022-10-20T00:16:08;1.48;;;1.13;;
26474;SDS011;14161;52.270;10.334;2022-10-20T00:18:34;2.85;;;1.48;;
26474;SDS011;14161;52.270;10.334;2022-10-20T00:21:03;1.58;;;1.13;;
26474;SDS011;14161;52.270;10.334;2022-10-20T00:23:29;1.52;;;1.20;;
26474;SDS011;14161;52.270;10.334;2022-10-20T00:28:31;2.15;;;1.23;;
26474;SDS011;14161;52.270;10.334;2022-10-20T00:30:57;2.25;;;1.48;;
26474;SDS011;14161;52.270;10.334;2022-10-20T00:33:22;2.65;;;1.02;;
26474;SDS011;14161;52.270;10.334;2022-10-20T00:35:48;1.95;;;1.10;;
26474;SDS011;14161;52.270;10.334;2022-10-20T00:38:14;1.38;;;1.25;;
26474;SDS011;14161;52.270;10.334;2022-10-20T00:40:39;2.20;;;1.30;;
26474;SDS011;14161;52.270;10.334;2022-10-20T00:43:08;1.85;;;1.10;;
26474;SDS011;14161;52.270;10.334;2022-10-20T00:45:35;2.03;;;1.20;;
26474;SDS011;14161;52.270;10.334;2022-10-20T00:48:04;1.67;;;1.20;;
26474;SDS011;14161;52.270;10.334;2022-10-20T00:50:33;1.83;;;1.10;;
26474;SDS011;14161;52.270;10.334;2022-10-20T00:53:06;2.60;;;1.30;;
26474;SDS011;14161;52.270;10.334;2022-10-20T00:55:32;2.28;;;1.42;;
26474;SDS011;14161;52.270;10.334;2022-10-20T00:58:00;2.30;;;1.20;;
26474;SDS011;14161;52.270;10.334;2022-10-20T01:00:26;3.35;;;1.67;;
26474;SDS011;14161;52.270;10.334;2022-10-20T01:02:52;2.38;;;1.50;;
26474;SDS011;14161;52.270;10.334;2022-10-20T01:05:20;2.38;;;1.50;;
26474;SDS011;14161;52.270;10.334;2022-10-20T01:07:45;2.70;;;1.67;;
26474;SDS011;14161;52.270;10.334;2022-10-20T01:10:11;2.38;;;1.63;;
26474;SDS011;14161;52.270;10.334;2022-10-20T01:15:25;2.47;;;1.48;;
26474;SDS011;14161;52.270;10.334;2022-10-20T01:25:50;2.55;;;1.67;;
26474;SDS011;14161;52.270;10.334;2022-10-20T01:30:55;3.97;;;1.48;;
26474;SDS011;14161;52.270;10.334;2022-10-20T01:33:29;3.67;;;1.92;;
26474;SDS011;14161;52.270;10.334;2022-10-20T01:36:17;3.08;;;1.70;;
26474;SDS011;14161;52.270;10.334;2022-10-20T01:39:00;3.50;;;1.60;;
26474;SDS011;14161;52.270;10.334;2022-10-20T01:41:38;3.45;;;1.85;;
26474;SDS011;14161;52.270;10.334;2022-10-20T01:44:07;3.58;;;1.95;;
26474;SDS011;14161;52.270;10.334;2022-10-20T01:46:36;1.92;;;1.52;;
26474;SDS011;14161;52.270;10.334;2022-10-20T01:49:02;2.50;;;1.67;;
26474;SDS011;14161;52.270;10.334;2022-10-20T01:51:28;3.38;;;2.13;;
26474;SDS011;14161;52.270;10.334;2022-10-20T01:53:53;2.03;;;1.77;;
26474;SDS011;14161;52.270;10.334;2022-10-20T01:56:19;3.33;;;1.65;;
26474;SDS011;14161;52.270;10.334;2022-10-20T02:02:12;4.25;;;1.60;;
26474;SDS011;14161;52.270;10.334;2022-10-20T02:05:03;3.95;;;1.70;;
26474;SDS011;14161;52.270;10.334;2022-10-20T02:08:10;2.00;;;1.80;;
26474;SDS011;14161;52.270;10.334;2022-10-20T02:10:56;1.67;;;1.38;;
26474;SDS011;14161;52.270;10.334;2022-10-20T02:13:24;2.67;;;1.73;;
26474;SDS011;14161;52.270;10.334;2022-10-20T02:15:51;3.33;;;2.10;;
26474;SDS011;14161;52.270;10.334;2022-10-20T02:18:21;2.20;;;1.67;;
26474;SDS011;14161;52.270;10.334;2022-10-20T02:20:50;2.42;;;1.52;;
26474;SDS011;14161;52.270;10.334;2022-10-20T02:23:20;3.75;;;1.90;;
26474;SDS011;14161;52.270;10.334;2022-10-20T02:25:46;3.42;;;2.00;;
26474;SDS011;14161;52.270;10.334;2022-10-20T02:28:12;2.17;;;1.70;;
26474;SDS011;14161;52.270;10.334;2022-10-20T02:30:39;2.78;;;1.80;;
26474;SDS011;14161;52.270;10.334;2022-10-20T02:33:05;2.30;;;1.88;;
26474;SDS011;14161;52.270;10.334;2022-10-20T02:35:32;1.98;;;1.60;;
26474;SDS011;14161;52.270;10.334;2022-10-20T02:37:57;2.60;;;1.33;;
26474;SDS011;14161;52.270;10.334;2022-10-20T02:40:24;2.95;;;1.60;;
26474;SDS011;14161;52.270;10.334;2022-10-20T02:42:50;2.60;;;2.00;;
26474;SDS011;14161;52.270;10.334;2022-10-20T02:45:15;3.25;;;1.80;;
26474;SDS011;14161;52.270;10.334;2022-10-20T02:47:41;2.05;;;1.55;;
26474;SDS011;14161;52.270;10.334;2022-10-20T02:50:06;2.88;;;1.80;;
26474;SDS011;14161;52.270;10.334;2022-10-20T02:52:33;3.97;;;1.60;;
26474;SDS011;14161;52.270;10.334;2022-10-20T02:54:58;3.95;;;2.10;;
26474;SDS011;14161;52.270;10.334;2022-10-20T02:57:24;2.17;;;1.92;;
26474;SDS011;14161;52.270;10.334;2022-10-20T02:59:50;2.10;;;1.80;;
26474;SDS011;14161;52.270;10.334;2022-10-20T03:02:16;1.65;;;1.45;;
26474;SDS011;14161;52.270;10.334;2022-10-20T03:04:41;3.03;;;1.73;;
26474;SDS011;14161;52.270;10.334;2022-10-20T03:07:06;2.72;;;1.75;;
26474;SDS011;14161;52.270;10.334;2022-10-20T03:09:32;4.57;;;2.25;;
26474;SDS011;14161;52.270;10.334;2022-10-20T03:11:57;2.70;;;2.08;;
26474;SDS011;14161;52.270;10.334;2022-10-20T03:14:23;2.65;;;1.60;;
26474;SDS011;14161;52.270;10.334;2022-10-20T03:16:48;2.38;;;1.70;;
26474;SDS011;14161;52.270;10.334;2022-10-20T03:19:14;2.30;;;1.80;;
26474;SDS011;14161;52.270;10.334;2022-10-20T03:21:39;2.72;;;1.50;;
26474;SDS011;14161;52.270;10.334;2022-10-20T03:24:05;3.40;;;1.55;;
26474;SDS011;14161;52.270;10.334;2022-10-20T03:26:30;2.65;;;1.70;;
26474;SDS011;14161;52.270;10.334;2022-10-20T03:28:55;1.98;;;1.63;;
26474;SDS011;14161;52.270;10.334;2022-10-20T03:31:21;3.35;;;1.65;;
26474;SDS011;14161;52.270;10.334;2022-10-20T03:33:46;2.45;;;1.48;;
26474;SDS011;14161;52.270;10.334;2022-10-20T03:36:12;2.33;;;1.48;;
26474;SDS011;14161;52.270;10.334;2022-10-20T03:38:39;1.55;;;1.42;;
26474;SDS011;14161;52.270;10.334;2022-10-20T03:41:06;2.97;;;1.50;;
26474;SDS011;14161;52.270;10.334;2022-10-20T03:43:31;3.22;;;1.58;;
26474;SDS011;14161;52.270;10.334;2022-10-20T03:46:03;3.33;;;1.90;;
26474;SDS011;14161;52.270;10.334;2022-10-20T03:48:30;3.13;;;1.83;;
26474;SDS011;14161;52.270;10.334;2022-10-20T03:50:56;2.78;;;1.83;;
26474;SDS011;14161;52.270;10.334;2022-10-20T03:53:21;2.15;;;1.70;;
26474;SDS011;14161;52.270;10.334;2022-10-20T03:55:47;1.95;;;1.50;;
26474;SDS011;14161;52.270;10.334;2022-10-20T03:58:12;4.45;;;1.90;;
26474;SDS011;14161;52.270;10.334;2022-10-20T04:00:38;3.50;;;2.00;;
26474;SDS011;14161;52.270;10.334;2022-10-20T04:03:03;3.10;;;2.00;;
26474;SDS011;14161;52.270;10.334;2022-10-20T04:05:28;3.03;;;1.70;;
26474;SDS011;14161;52.270;10.334;2022-10-20T04:07:54;2.17;;;1.70;;
26474;SDS011;14161;52.270;10.334;2022-10-20T04:10:19;3.97;;;1.98;;
26474;SDS011;14161;52.270;10.334;2022-10-20T04:12:45;4.70;;;2.08;;
26474;SDS011;14161;52.270;10.334;2022-10-20T04:15:10;4.40;;;2.25;;
26474;SDS011;14161;52.270;10.334;2022-10-20T04:17:36;3.67;;;2.20;;
26474;SDS011;14161;52.270;10.334;2022-10-20T04:20:02;4.15;;;1.83;;
26474;SDS011;14161;52.270;10.334;2022-10-20T04:22:28;2.13;;;1.92;;
26474;SDS011;14161;52.270;10.334;2022-10-20T04:24:53;2.30;;;1.85;;
26474;SDS011;14161;52.270;10.334;2022-10-20T04:27:19;1.80;;;1.45;;
26474;SDS011;14161;52.270;10.334;2022-10-20T04:29:45;3.85;;;2.25;;
26474;SDS011;14161;52.270;10.334;2022-10-20T04:32:11;2.67;;;2.28;;
26474;SDS011;14161;52.270;10.334;2022-10-20T04:34:36;2.58;;;1.88;;
26474;SDS011;14161;52.270;10.334;2022-10-20T04:37:01;3.40;;;2.28;;
26474;SDS011;14161;52.270;10.334;2022-10-20T04:39:27;2.33;;;1.70;;
26474;SDS011;14161;52.270;10.334;2022-10-20T04:41:52;2.47;;;1.92;;
26474;SDS011;14161;52.270;10.334;2022-10-20T04:44:18;2.97;;;1.80;;
26474;SDS011;14161;52.270;10.334;2022-10-20T04:46:43;2.50;;;1.75;;
26474;SDS011;14161;52.270;10.334;2022-10-20T04:49:09;2.83;;;2.03;;
26474;SDS011;14161;52.270;10.334;2022-10-20T04:51:37;4.75;;;2.20;;
26474;SDS011;14161;52.270;10.334;2022-10-20T04:54:11;3.50;;;2.22;;
26474;SDS011;14161;52.270;10.334;2022-10-20T05:12:43;1.60;;;1.50;;
26474;SDS011;14161;52.270;10.334;2022-10-20T06:01:45;3.80;;;2.38;;
26474;SDS011;14161;52.270;10.334;2022-10-20T06:04:14;3.25;;;2.42;;
26474;SDS011;14161;52.270;10.334;2022-10-20T06:06:41;2.78;;;2.53;;
26474;SDS011;14161;52.270;10.334;2022-10-20T06:09:08;4.25;;;2.58;;
26474;SDS011;14161;52.270;10.334;2022-10-20T06:11:34;3.20;;;2.67;;
26474;SDS011;14161;52.270;10.334;2022-10-20T06:14:00;3.53;;;3.00;;
26474;SDS011;14161;52.270;10.334;2022-10-20T06:16:26;4.30;;;2.65;;
26474;SDS011;14161;52.270;10.334;2022-10-20T06:18:52;3.63;;;2.58;;
26474;SDS011;14161;52.270;10.334;2022-10-20T06:21:18;5.68;;;3.00;;
26474;SDS011;14161;52.270;10.334;2022-10-20T06:23:45;3.25;;;2.53;;
26474;SDS011;14161;52.270;10.334;2022-10-20T06:26:12;3.15;;;2.50;;
26474;SDS011;14161;52.270;10.334;2022-10-20T06:28:41;4.90;;;3.20;;
26474;SDS011;14161;52.270;10.334;2022-10-20T06:33:39;3.70;;;2.55;;
26474;SDS011;14161;52.270;10.334;2022-10-20T06:36:05;4.13;;;2.95;;
26474;SDS011;14161;52.270;10.334;2022-10-20T06:38:31;3.80;;;2.90;;
26474;SDS011;14161;52.270;10.334;2022-10-20T06:40:59;4.45;;;2.58;;
26474;SDS011;14161;52.270;10.334;2022-10-20T06:43:25;3.35;;;2.75;;
26474;SDS011;14161;52.270;10.334;2022-10-20T06:45:55;5.28;;;3.00;;
26474;SDS011;14161;52.270;10.334;2022-10-20T06:48:21;3.20;;;2.90;;
26474;SDS011;14161;52.270;10.334;2022-10-20T06:50:46;5.43;;;3.45;;
26474;SDS011;14161;52.270;10.334;2022-10-20T07:05:05;3.17;;;2.50;;
26474;SDS011;14161;52.270;10.334;2022-10-20T07:19:41;2.60;;;2.40;;
26474;SDS011;14161;52.270;10.334;2022-10-20T07:22:19;4.90;;;3.15;;
26474;SDS011;14161;52.270;10.334;2022-10-20T07:25:03;3.85;;;3.10;;
26474;SDS011;14161;52.270;10.334;2022-10-20T07:27:38;4.07;;;3.40;;
26474;SDS011;14161;52.270;10.334;2022-10-20T07:30:12;3.83;;;2.83;;
26474;SDS011;14161;52.270;10.334;2022-10-20T07:32:44;9.10;;;3.22;;
26474;SDS011;14161;52.270;10.334;2022-10-20T07:35:09;3.40;;;2.88;;
26474;SDS011;14161;52.270;10.334;2022-10-20T07:37:38;4.93;;;2.83;;
26474;SDS011;14161;52.270;10.334;2022-10-20T07:40:14;3.13;;;2.83;;
26474;SDS011;14161;52.270;10.334;2022-10-20T07:42:45;3.63;;;2.95;;
26474;SDS011;14161;52.270;10.334;2022-10-20T07:45:21;3.60;;;3.03;;
26474;SDS011;14161;52.270;10.334;2022-10-20T07:47:50;3.45;;;2.95;;
26474;SDS011;14161;52.270;10.334;2022-10-20T07:50:32;3.85;;;2.80;;
26474;SDS011;14161;52.270;10.334;2022-10-20T07:53:05;3.97;;;3.13;;
26474;SDS011;14161;52.270;10.334;2022-10-20T07:56:08;4.53;;;2.88;;
26474;SDS011;14161;52.270;10.334;2022-10-20T07:59:02;3.38;;;2.83;;
26474;SDS011;14161;52.270;10.334;2022-10-20T08:01:34;5.13;;;3.47;;
26474;SDS011;14161;52.270;10.334;2022-10-20T08:04:17;3.28;;;2.85;;
26474;SDS011;14161;52.270;10.334;2022-10-20T08:06:48;4.00;;;3.03;;
26474;SDS011;14161;52.270;10.334;2022-10-20T08:09:16;3.45;;;2.90;;
26474;SDS011;14161;52.270;10.334;2022-10-20T08:11:41;7.13;;;3.92;;
26474;SDS011;14161;52.270;10.334;2022-10-20T08:14:16;5.28;;;3.10;;
26474;SDS011;14161;52.270;10.334;2022-10-20T08:16:57;4.78;;;3.33;;
26474;SDS011;14161;52.270;10.334;2022-10-20T08:22:12;4.70;;;3.35;;
26474;SDS011;14161;52.270;10.334;2022-10-20T08:24:47;4.60;;;3.58;;
26474;SDS011;14161;52.270;10.334;2022-10-20T08:27:21;4.43;;;3.30;;
26474;SDS011;14161;52.270;10.334;2022-10-20T08:32:35;4.40;;;3.38;;
26474;SDS011;14161;52.270;10.334;2022-10-20T08:35:06;5.40;;;3.97;;
26474;SDS011;14161;52.270;10.334;2022-10-20T08:37:40;4.18;;;3.50;;
26474;SDS011;14161;52.270;10.334;2022-10-20T08:40:17;6.15;;;3.70;;
26474;SDS011;14161;52.270;10.334;2022-10-20T08:42:49;5.10;;;3.47;;
26474;SDS011;14161;52.270;10.334;2022-10-20T08:45:17;4.57;;;3.60;;
26474;SDS011;14161;52.270;10.334;2022-10-20T08:47:52;3.80;;;3.40;;
26474;SDS011;14161;52.270;10.334;2022-10-20T08:50:24;4.15;;;3.58;;
26474;SDS011;14161;52.270;10.334;2022-10-20T08:52:58;5.93;;;3.42;;
26474;SDS011;14161;52.270;10.334;2022-10-20T08:55:26;4.65;;;3.05;;
26474;SDS011;14161;52.270;10.334;2022-10-20T08:58:06;4.95;;;3.65;;
26474;SDS011;14161;52.270;10.334;2022-10-20T09:00:37;4.00;;;3.60;;
26474;SDS011;14161;52.270;10.334;2022-10-20T09:03:17;6.90;;;3.38;;
26474;SDS011;14161;52.270;10.334;2022-10-20T09:05:53;5.05;;;3.85;;
26474;SDS011;14161;52.270;10.334;2022-10-20T09:08:25;4.07;;;3.20;;
26474;SDS011;14161;52.270;10.334;2022-10-20T09:10:55;3.97;;;3.33;;
26474;SDS011;14161;52.270;10.334;2022-10-20T09:13:26;4.30;;;3.55;;
26474;SDS011;14161;52.270;10.334;2022-10-20T09:15:57;6.97;;;3.22;;
26474;SDS011;14161;52.270;10.334;2022-10-20T09:18:26;4.07;;;3.40;;
26474;SDS011;14161;52.270;10.334;2022-10-20T09:20:55;5.05;;;3.25;;
26474;SDS011;14161;52.270;10.334;2022-10-20T09:23:39;5.50;;;4.00;;
26474;SDS011;14161;52.270;10.334;2022-10-20T09:26:18;5.07;;;3.45;;
26474;SDS011;14161;52.270;10.334;2022-10-20T09:28:49;4.03;;;3.55;;
26474;SDS011;14161;52.270;10.334;2022-10-20T09:31:50;4.55;;;3.28;;
26474;SDS011;14161;52.270;10.334;2022-10-20T09:34:28;5.50;;;3.30;;
26474;SDS011;14161;52.270;10.334;2022-10-20T09:37:02;6.47;;;3.60;;
26474;SDS011;14161;52.270;10.334;2022-10-20T09:39:41;5.38;;;3.70;;
26474;SDS011;14161;52.270;10.334;2022-10-20T09:42:13;3.90;;;3.38;;
26474;SDS011;14161;52.270;10.334;2022-10-20T09:44:51;5.47;;;3.63;;
26474;SDS011;14161;52.270;10.334;2022-10-20T09:47:21;4.13;;;2.88;;
26474;SDS011;14161;52.270;10.334;2022-10-20T09:49:56;7.43;;;3.70;;
26474;SDS011;14161;52.270;10.334;2022-10-20T09:52:24;5.45;;;3.15;;
26474;SDS011;14161;52.270;10.334;2022-10-20T09:55:03;5.22;;;3.90;;
26474;SDS011;14161;52.270;10.334;2022-10-20T09:57:32;3.78;;;3.22;;
26474;SDS011;14161;52.270;10.334;2022-10-20T09:59:58;5.00;;;3.10;;
26474;SDS011;14161;52.270;10.334;2022-10-20T10:02:28;4.35;;;3.50;;
26474;SDS011;14161;52.270;10.334;2022-10-20T10:05:11;3.83;;;3.20;;
26474;SDS011;14161;52.270;10.334;2022-10-20T10:07:45;3.50;;;2.88;;
26474;SDS011;14161;52.270;10.334;2022-10-20T10:10:25;4.93;;;3.58;;
26474;SDS011;14161;52.270;10.334;2022-10-20T10:12:55;4.00;;;3.42;;
26474;SDS011;14161;52.270;10.334;2022-10-20T10:15:35;6.45;;;3.88;;
26474;SDS011;14161;52.270;10.334;2022-10-20T10:18:10;5.20;;;3.60;;
26474;SDS011;14161;52.270;10.334;2022-10-20T10:20:43;4.22;;;3.38;;
26474;SDS011;14161;52.270;10.334;2022-10-20T10:23:23;4.22;;;3.38;;
26474;SDS011;14161;52.270;10.334;2022-10-20T10:25:50;3.80;;;3.10;;
26474;SDS011;14161;52.270;10.334;2022-10-20T10:28:20;3.30;;;2.90;;
26474;SDS011;14161;52.270;10.334;2022-10-20T10:31:17;3.45;;;2.60;;
26474;SDS011;14161;52.270;10.334;2022-10-20T10:33:44;4.07;;;2.60;;
26474;SDS011;14161;52.270;10.334;2022-10-20T10:36:13;5.72;;;3.38;;
26474;SDS011;14161;52.270;10.334;2022-10-20T10:38:43;6.80;;;3.70;;
26474;SDS011;14161;52.270;10.334;2022-10-20T10:41:26;5.03;;;3.67;;
26474;SDS011;14161;52.270;10.334;2022-10-20T10:46:59;4.18;;;3.03;;
26474;SDS011;14161;52.270;10.334;2022-10-20T10:57:25;4.28;;;3.55;;
26474;SDS011;14161;52.270;10.334;2022-10-20T10:59:57;6.18;;;3.53;;
26474;SDS011;14161;52.270;10.334;2022-10-20T11:08:07;4.55;;;3.55;;
26474;SDS011;14161;52.270;10.334;2022-10-20T11:14:11;4.47;;;3.78;;
26474;SDS011;14161;52.270;10.334;2022-10-20T11:19:54;5.03;;;3.65;;
26474;SDS011;14161;52.270;10.334;2022-10-20T11:27:55;7.13;;;3.55;;
26474;SDS011;14161;52.270;10.334;2022-10-20T11:30:22;3.70;;;3.05;;
26474;SDS011;14161;52.270;10.334;2022-10-20T11:32:58;4.82;;;3.67;;
26474;SDS011;14161;52.270;10.334;2022-10-20T11:37:56;5.13;;;3.25;;
26474;SDS011;14161;52.270;10.334;2022-10-20T11:40:38;4.32;;;2.83;;
26474;SDS011;14161;52.270;10.334;2022-10-20T11:43:12;4.30;;;3.05;;
26474;SDS011;14161;52.270;10.334;2022-10-20T11:45:56;4.13;;;3.28;;
26474;SDS011;14161;52.270;10.334;2022-10-20T11:48:45;3.28;;;2.90;;
26474;SDS011;14161;52.270;10.334;2022-10-20T12:11:24;3.47;;;2.60;;
26474;SDS011;14161;52.270;10.334;2022-10-20T12:27:26;6.57;;;3.03;;
26474;SDS011;14161;52.270;10.334;2022-10-20T12:32:50;3.63;;;2.78;;
26474;SDS011;14161;52.270;10.334;2022-10-20T12:37:54;3.88;;;2.78;;
26474;SDS011;14161;52.270;10.334;2022-10-20T12:40:24;4.47;;;3.10;;
26474;SDS011;14161;52.270;10.334;2022-10-20T12:42:51;4.47;;;2.40;;
26474;SDS011;14161;52.270;10.334;2022-10-20T12:47:54;4.55;;;2.53;;
26474;SDS011;14161;52.270;10.334;2022-10-20T12:53:08;3.13;;;2.10;;
26474;SDS011;14161;52.270;10.334;2022-10-20T12:55:35;3.17;;;2.25;;
26474;SDS011;14161;52.270;10.334;2022-10-20T12:58:11;6.38;;;2.30;;
26474;SDS011;14161;52.270;10.334;2022-10-20T13:05:56;3.33;;;2.95;;
26474;SDS011;14161;52.270;10.334;2022-10-20T13:08:24;3.25;;;2.33;;
26474;SDS011;14161;52.270;10.334;2022-10-20T13:10:50;2.97;;;2.20;;
26474;SDS011;14161;52.270;10.334;2022-10-20T13:23:16;5.22;;;3.00;;
26474;SDS011;14161;52.270;10.334;2022-10-20T13:25:50;2.67;;;2.28;;
26474;SDS011;14161;52.270;10.334;2022-10-20T13:28:20;4.10;;;2.70;;
26474;SDS011;14161;52.270;10.334;2022-10-20T13:36:41;4.00;;;2.83;;
26474;SDS011;14161;52.270;10.334;2022-10-20T13:39:20;3.72;;;2.95;;
26474;SDS011;14161;52.270;10.334;2022-10-20T13:47:27;3.45;;;2.95;;
26474;SDS011;14161;52.270;10.334;2022-10-20T13:50:20;3.30;;;3.00;;
26474;SDS011;14161;52.270;10.334;2022-10-20T13:52:58;4.68;;;2.55;;
26474;SDS011;14161;52.270;10.334;2022-10-20T13:55:28;3.20;;;2.67;;
26474;SDS011;14161;52.270;10.334;2022-10-20T13:57:56;3.08;;;2.78;;
26474;SDS011;14161;52.270;10.334;2022-10-20T14:00:29;3.55;;;2.67;;
26474;SDS011;14161;52.270;10.334;2022-10-20T14:03:03;3.13;;;2.72;;
26474;SDS011;14161;52.270;10.334;2022-10-20T14:05:38;4.90;;;2.90;;
26474;SDS011;14161;52.270;10.334;2022-10-20T14:08:10;4.43;;;3.20;;
26474;SDS011;14161;52.270;10.334;2022-10-20T14:10:42;4.40;;;3.40;;
26474;SDS011;14161;52.270;10.334;2022-10-20T14:13:15;4.28;;;3.33;;
26474;SDS011;14161;52.270;10.334;2022-10-20T14:15:50;5.07;;;3.22;;
26474;SDS011;14161;52.270;10.334;2022-10-20T14:18:21;3.35;;;3.05;;
26474;SDS011;14161;52.270;10.334;2022-10-20T14:23:33;4.45;;;3.80;;
26474;SDS011;14161;52.270;10.334;2022-10-20T14:26:00;4.60;;;3.90;;
26474;SDS011;14161;52.270;10.334;2022-10-20T14:28:28;4.82;;;3.10;;
26474;SDS011;14161;52.270;10.334;2022-10-20T14:30:56;4.60;;;3.80;;
26474;SDS011;14161;52.270;10.334;2022-10-20T14:33:22;9.15;;;3.65;;
26474;SDS011;14161;52.270;10.334;2022-10-20T14:35:52;7.13;;;3.70;;
26474;SDS011;14161;52.270;10.334;2022-10-20T14:38:20;3.70;;;3.05;;
26474;SDS011;14161;52.270;10.334;2022-10-20T14:40:53;4.05;;;3.20;;
26474;SDS011;14161;52.270;10.334;2022-10-20T14:43:22;4.32;;;3.25;;
26474;SDS011;14161;52.270;10.334;2022-10-20T14:45:54;5.07;;;3.80;;
26474;SDS011;14161;52.270;10.334;2022-10-20T14:48:21;4.07;;;3.67;;
26474;SDS011;14161;52.270;10.334;2022-10-20T14:50:52;4.75;;;3.50;;
26474;SDS011;14161;52.270;10.334;2022-10-20T15:02:43;5.28;;;3.63;;
26474;SDS011;14161;52.270;10.334;2022-10-20T15:05:29;13.15;;;10.00;;
26474;SDS011;14161;52.270;10.334;2022-10-20T15:47:15;3.28;;;2.13;;
26474;SDS011;14161;52.270;10.334;2022-10-20T15:49:44;2.35;;;2.10;;
26474;SDS011;14161;52.270;10.334;2022-10-20T15:52:09;2.63;;;2.10;;
26474;SDS011;14161;52.270;10.334;2022-10-20T15:54:35;3.97;;;2.50;;
26474;SDS011;14161;52.270;10.334;2022-10-20T15:57:00;2.65;;;2.40;;
26474;SDS011;14161;52.270;10.334;2022-10-20T15:59:26;6.03;;;2.85;;
26474;SDS011;14161;52.270;10.334;2022-10-20T16:01:51;3.30;;;2.90;;
26474;SDS011;14161;52.270;10.334;2022-10-20T16:04:18;5.03;;;2.60;;
26474;SDS011;14161;52.270;10.334;2022-10-20T16:06:47;2.30;;;2.05;;
26474;SDS011;14161;52.270;10.334;2022-10-20T16:09:12;4.65;;;2.15;;
26474;SDS011;14161;52.270;10.334;2022-10-20T16:11:38;2.78;;;2.17;;
26474;SDS011;14161;52.270;10.334;2022-10-20T16:14:03;2.35;;;2.15;;
26474;SDS011;14161;52.270;10.334;2022-10-20T16:16:30;2.88;;;2.45;;
26474;SDS011;14161;52.270;10.334;2022-10-20T16:18:55;3.55;;;2.30;;
26474;SDS011;14161;52.270;10.334;2022-10-20T16:21:21;4.43;;;2.25;;
26474;SDS011;14161;52.270;10.334;2022-10-20T16:23:46;3.17;;;2.10;;
26474;SDS011;14161;52.270;10.334;2022-10-20T16:26:12;3.20;;;2.13;;
26474;SDS011;14161;52.270;10.334;2022-10-20T16:28:39;2.42;;;2.00;;
26474;SDS011;14161;52.270;10.334;2022-10-20T16:31:06;3.90;;;2.00;;
26474;SDS011;14161;52.270;10.334;2022-10-20T16:33:32;3.65;;;2.22;;
26474;SDS011;14161;52.270;10.334;2022-10-20T16:35:59;3.47;;;1.85;;
26474;SDS011;14161;52.270;10.334;2022-10-20T16:38:25;1.98;;;1.77;;
26474;SDS011;14161;52.270;10.334;2022-10-20T16:40:58;2.22;;;1.83;;
26474;SDS011;14161;52.270;10.334;2022-10-20T16:43:25;1.70;;;1.58;;
26474;SDS011;14161;52.270;10.334;2022-10-20T16:45:50;3.85;;;2.13;;
26474;SDS011;14161;52.270;10.334;2022-10-20T16:48:16;2.75;;;1.85;;
26474;SDS011;14161;52.270;10.334;2022-10-20T16:50:41;3.15;;;1.98;;
26474;SDS011;14161;52.270;10.334;2022-10-20T16:53:07;2.40;;;2.00;;
26474;SDS011;14161;52.270;10.334;2022-10-20T16:55:32;5.57;;;4.15;;
26474;SDS011;14161;52.270;10.334;2022-10-20T16:58:11;10.73;;;5.57;;
26474;SDS011;14161;52.270;10.334;2022-10-20T17:00:36;5.68;;;4.93;;
26474;SDS011;14161;52.270;10.334;2022-10-20T17:03:02;5.63;;;2.95;;
26474;SDS011;14161;52.270;10.334;2022-10-20T17:05:27;3.95;;;3.25;;
26474;SDS011;14161;52.270;10.334;2022-10-20T17:07:53;4.88;;;2.75;;
26474;SDS011;14161;52.270;10.334;2022-10-20T17:10:22;4.10;;;2.38;;
26474;SDS011;14161;52.270;10.334;2022-10-20T17:12:47;2.63;;;1.98;;
26474;SDS011;14161;52.270;10.334;2022-10-20T17:15:13;4.72;;;2.22;;
26474;SDS011;14161;52.270;10.334;2022-10-20T17:17:38;2.55;;;1.85;;
26474;SDS011;14161;52.270;10.334;2022-10-20T17:20:04;3.88;;;2.17;;
26474;SDS011;14161;52.270;10.334;2022-10-20T17:22:30;3.17;;;1.70;;
26474;SDS011;14161;52.270;10.334;2022-10-20T17:24:55;5.47;;;2.40;;
26474;SDS011;14161;52.270;10.334;2022-10-20T17:27:21;2.85;;;2.22;;
26474;SDS011;14161;52.270;10.334;2022-10-20T17:29:46;3.58;;;2.03;;
26474;SDS011;14161;52.270;10.334;2022-10-20T17:32:12;2.35;;;1.85;;
26474;SDS011;14161;52.270;10.334;2022-10-20T17:34:37;2.47;;;2.03;;
26474;SDS011;14161;52.270;10.334;2022-10-20T17:37:03;2.88;;;2.50;;
26474;SDS011;14161;52.270;10.334;2022-10-20T17:39:29;1.92;;;1.75;;
26474;SDS011;14161;52.270;10.334;2022-10-20T17:41:54;3.28;;;2.15;;
26474;SDS011;14161;52.270;10.334;2022-10-20T17:44:20;4.50;;;2.22;;
26474;SDS011;14161;52.270;10.334;2022-10-20T17:46:45;2.95;;;2.25;;
26474;SDS011;14161;52.270;10.334;2022-10-20T17:49:11;2.85;;;2.10;;
26474;SDS011;14161;52.270;10.334;2022-10-20T17:51:36;2.50;;;2.30;;
26474;SDS011;14161;52.270;10.334;2022-10-20T17:54:02;2.85;;;2.25;;
26474;SDS011;14161;52.270;10.334;2022-10-20T17:56:29;2.50;;;2.13;;
26474;SDS011;14161;52.270;10.334;2022-10-20T17:58:56;3.90;;;2.20;;
26474;SDS011;14161;52.270;10.334;2022-10-20T18:01:26;5.90;;;2.47;;
26474;SDS011;14161;52.270;10.334;2022-10-20T18:04:05;3.92;;;2.90;;
26474;SDS011;14161;52.270;10.334;2022-10-20T18:06:33;6.03;;;3.35;;
26474;SDS011;14161;52.270;10.334;2022-10-20T18:08:59;5.50;;;3.90;;
26474;SDS011;14161;52.270;10.334;2022-10-20T18:11:27;6.20;;;3.65;;
26474;SDS011;14161;52.270;10.334;2022-10-20T18:13:55;4.50;;;3.17;;
26474;SDS011;14161;52.270;10.334;2022-10-20T18:16:21;3.55;;;2.78;;
26474;SDS011;14161;52.270;10.334;2022-10-20T18:18:47;4.82;;;3.00;;
26474;SDS011;14161;52.270;10.334;2022-10-20T18:21:13;4.25;;;3.03;;
26474;SDS011;14161;52.270;10.334;2022-10-20T18:23:40;4.85;;;3.13;;
26474;SDS011;14161;52.270;10.334;2022-10-20T18:26:09;3.35;;;2.65;;
26474;SDS011;14161;52.270;10.334;2022-10-20T18:28:35;3.35;;;2.70;;
26474;SDS011;14161;52.270;10.334;2022-10-20T18:31:06;3.25;;;2.78;;
26474;SDS011;14161;52.270;10.334;2022-10-20T18:33:33;3.05;;;2.50;;
26474;SDS011;14161;52.270;10.334;2022-10-20T18:36:02;4.18;;;2.88;;
26474;SDS011;14161;52.270;10.334;2022-10-20T18:38:29;3.20;;;2.63;;
26474;SDS011;14161;52.270;10.334;2022-10-20T18:40:54;3.97;;;2.88;;
26474;SDS011;14161;52.270;10.334;2022-10-20T18:43:20;3.42;;;3.03;;
26474;SDS011;14161;52.270;10.334;2022-10-20T18:45:49;4.25;;;3.17;;
26474;SDS011;14161;52.270;10.334;2022-10-20T18:48:15;4.18;;;3.20;;
26474;SDS011;14161;52.270;10.334;2022-10-20T18:50:41;5.10;;;3.47;;
26474;SDS011;14161;52.270;10.334;2022-10-20T18:53:07;5.45;;;3.95;;
26474;SDS011;14161;52.270;10.334;2022-10-20T18:55:33;8.75;;;4.53;;
26474;SDS011;14161;52.270;10.334;2022-10-20T18:57:58;5.28;;;3.38;;
26474;SDS011;14161;52.270;10.334;2022-10-20T19:00:24;3.95;;;3.22;;
26474;SDS011;14161;52.270;10.334;2022-10-20T19:02:50;4.05;;;3.30;;
26474;SDS011;14161;52.270;10.334;2022-10-20T19:05:17;3.35;;;2.95;;
26474;SDS011;14161;52.270;10.334;2022-10-20T19:07:42;3.42;;;2.85;;
26474;SDS011;14161;52.270;10.334;2022-10-20T19:10:07;6.38;;;3.80;;
26474;SDS011;14161;52.270;10.334;2022-10-20T19:12:33;5.63;;;3.47;;
26474;SDS011;14161;52.270;10.334;2022-10-20T19:14:59;5.65;;;4.15;;